FW6259 Weather Reports


Display with metric or nautical units.
time (UTC)temp
F
wind
direction
speed
MPH
gust
MPH
rain 1hr
in
rain 24hr
in
rain mn
in
humidity
%
barometer
mb
20221003121505 35 57 0.0 4.0 0.01 0.02 0.02 95 1014.7
20221003120056 35 44 0.0 2.0 0.01 0.02 0.02 95 1014.7
20221003114601 35 32 0.0 2.0 0.01 0.02 0.02 95 1014.9
20221003113103 35 58 1.0 3.0 0.00 0.01 0.01 94 1014.9
20221003111555 36 351 0.0 1.0 0.01 0.01 0.01 94 1014.7
20221003110059 36 330 0.0 1.0 0.01 0.01 0.01 94 1014.4
20221003104608 36 226 0.0 0.0 0.01 0.01 0.01 94 1014.4
20221003103042 36 231 0.0 3.0 0.01 0.01 0.01 93 1014.3
20221003101557 36 66 0.0 2.0 0.00 0.00 0.00 93 1014.2
20221003100044 35 133 1.0 5.0 0.00 0.00 0.00 93 1014.3
20221003094601 35 139 0.0 1.0 0.00 0.00 0.00 92 1014.2
20221003093047 35 274 0.0 1.0 0.00 0.00 0.00 92 1013.9
20221003091503 35 277 0.0 1.0 0.00 0.00 0.00 95 1013.6
20221003090131 35 215 0.0 2.0 0.00 0.00 0.00 91 1013.2
20221003084548 35 344 0.0 2.0 0.00 0.00 0.00 94 1013.5
20221003083059 35 256 0.0 2.0 0.00 0.00 0.00 94 1013.4
20221003081554 36 356 0.0 1.0 0.00 0.00 0.00 92 1013.1
20221003080042 36 139 0.0 3.0 0.00 0.00 0.00 91 1013.0
20221003074611 36 351 0.0 1.0 0.00 0.00 0.00 91 1013.1
20221003073047 37 346 0.0 1.0 0.00 0.00 0.00 90 1013.3
20221003071601 38 352 1.0 4.0 0.00 0.00 0.00 89 1013.6
20221003070108 37 209 2.0 3.0 0.00 0.00 0.00 91 1013.6
20221003064547 38 336 0.0 1.0 0.00 0.00 0.00 89 1013.6
20221003063054 39 2 0.0 4.0 0.00 0.00 0.00 88 1013.7
20221003061552 39 93 0.0 5.0 0.00 0.00 0.00 89 1013.7
20221003060115 39 51 0.0 2.0 0.00 0.00 0.00 90 1013.9
20221003054551 39 287 0.0 4.0 0.00 0.00 0.00 89 1013.7
20221003053046 39 35 0.0 3.0 0.00 0.00 0.00 89 1013.7
20221003051558 40 98 0.0 2.0 0.00 0.00 0.00 89 1013.5
20221003050048 39 255 1.0 4.0 0.00 0.00 0.00 90 1013.7
20221003044547 40 63 1.0 5.0 0.00 0.00 0.00 89 1014.1
20221003043054 40 53 0.0 7.0 0.00 0.00 0.00 89 1013.7
20221003041550 40 137 0.0 2.0 0.00 0.00 0.00 88 1013.9
20221003040107 40 66 1.0 3.0 0.00 0.00 0.00 88 1013.6
20221003034603 40 127 0.0 4.0 0.00 0.00 0.00 88 1013.7
20221003033041 41 125 1.0 5.0 0.00 0.00 0.00 86 1013.9
20221003031604 42 111 1.0 3.0 0.00 0.00 0.00 81 1013.8
20221003030045 43 46 2.0 3.0 0.00 0.00 0.00 80 1013.7
20221003024503 43 3 0.0 2.0 0.00 0.00 0.00 78 1013.7
20221003023054 43 325 3.0 6.0 0.00 0.00 0.00 78 1013.7
20221003021502 45 60 2.0 4.0 0.00 0.00 0.00 75 1013.9
20221003020054 47 77 4.0 13.0 0.00 0.00 0.00 64 1013.8
20221003014548 47 165 3.0 11.0 0.00 0.00 0.00 64 1013.7
20221003013054 48 184 5.0 12.0 0.00 0.00 0.00 64 1013.7
20221003011551 48 175 6.0 12.0 0.00 0.00 0.00 65 1013.9
20221003010058 46 205 3.0 8.0 0.00 0.00 0.00 69 1014.0
20221003004553 46 216 2.0 8.0 0.00 0.00 0.00 69 1013.9
20221003003042 45 134 2.0 6.0 0.00 0.00 0.00 73 1013.9
20221003001558 45 71 1.0 4.0 0.00 0.00 0.00 78 1014.0
20221003000051 45 79 0.0 3.0 0.00 0.00 0.00 78 1014.0
20221002234505 45 82 1.0 5.0 0.00 0.00 0.00 79 1013.9
20221002233052 45 160 1.0 4.0 0.00 0.00 0.00 78 1014.0
20221002231552 44 82 0.0 4.0 0.00 0.00 0.00 83 1014.0
20221002230055 43 48 1.0 4.0 0.00 0.00 0.00 85 1014.1
20221002224549 43 345 2.0 6.0 0.00 0.00 0.00 86 1014.1
20221002223101 42 30 1.0 5.0 0.00 0.00 0.00 87 1014.1
20221002221549 42 91 0.0 4.0 0.00 0.00 0.00 89 1014.2
20221002220101 41 318 1.0 4.0 0.00 0.00 0.00 89 1014.2
20221002214556 40 48 1.0 3.0 0.00 0.00 0.00 90 1014.3
20221002213004 40 27 3.0 7.0 0.00 0.00 0.00 89 1014.1
20221002211551 40 94 2.0 5.0 0.00 0.00 0.00 90 1014.2
20221002210045 40 71 1.0 3.0 0.00 0.00 0.00 91 1014.1
20221002204600 39 86 2.0 5.0 0.00 0.00 0.00 92 1014.0
20221002203047 39 62 0.0 4.0 0.00 0.00 0.00 93 1013.8
20221002201603 39 60 1.0 4.0 0.00 0.00 0.00 93 1013.7
20221002200045 38 75 1.0 3.0 0.00 0.00 0.00 92 1013.7
20221002194556 38 72 0.0 2.0 0.00 0.00 0.00 92 1013.6
20221002193050 38 321 0.0 3.0 0.00 0.00 0.00 92 1013.5
20221002191504 38 338 1.0 4.0 0.00 0.00 0.00 91 1013.2
20221002190055 38 73 0.0 1.0 0.00 0.00 0.00 91 1013.2
20221002184547 37 356 0.0 3.0 0.00 0.00 0.00 91 1013.1
20221002183052 37 94 0.0 2.0 0.00 0.00 0.00 91 1013.1
20221002181549 37 53 0.0 4.0 0.00 0.00 0.00 91 1013.0
20221002180101 37 248 0.0 2.0 0.00 0.00 0.00 91 1012.7
20221002174554 36 344 0.0 6.0 0.00 0.00 0.00 91 1012.6
20221002173043 36 4 1.0 3.0 0.00 0.00 0.00 90 1012.7
20221002171553 36 112 0.0 2.0 0.00 0.00 0.00 89 1012.9
20221002170043 36 332 0.0 1.0 0.00 0.00 0.00 89 1012.4
20221002164559 36 12 0.0 2.0 0.00 0.01 0.00 89 1012.1
20221002163055 36 338 0.0 4.0 0.00 0.01 0.00 89 1012.0
20221002161601 36 84 1.0 4.0 0.00 0.01 0.00 89 1011.9
20221002160105 36 53 0.0 5.0 0.00 0.01 0.00 90 1011.7
20221002154550 35 67 1.0 5.0 0.00 0.04 0.00 89 1011.5
20221002153100 35 352 0.0 1.0 0.00 0.04 0.00 89 1011.2
20221002151559 35 37 2.0 4.0 0.00 0.04 0.00 89 1011.3
20221002150002 36 354 0.0 2.0 0.00 0.04 0.00 89 1011.3
20221002144557 36 325 1.0 2.0 0.00 0.04 0.00 91 1011.2
20221002143046 36 231 0.0 1.0 0.00 0.04 0.00 88 1011.3
20221002141558 37 359 0.0 2.0 0.00 0.04 0.00 87 1011.4
20221002140049 38 322 0.0 2.0 0.00 0.04 0.00 87 1011.4
20221002134504 38 71 0.0 2.0 0.00 0.04 0.00 86 1011.2
20221002133053 39 347 0.0 2.0 0.00 0.04 0.00 86 1011.4
20221002131551 39 356 2.0 3.0 0.00 0.04 0.00 85 1011.3
20221002130102 39 53 0.0 1.0 0.00 0.04 0.00 84 1011.5
20221002124550 40 51 0.0 1.0 0.00 0.04 0.00 82 1011.4
20221002123043 40 349 0.0 3.0 0.00 0.04 0.00 82 1011.7
20221002121601 40 96 1.0 4.0 0.00 0.04 0.00 80 1011.5